createdAt,value
2022-12-03T00:03:44.977Z,3.80
2022-12-03T00:08:47.471Z,3.51
2022-12-03T00:13:49.931Z,3.60
2022-12-03T00:18:52.234Z,3.62
2022-12-03T00:23:55.012Z,3.50
2022-12-03T00:28:57.906Z,3.51
2022-12-03T00:34:00.318Z,3.30
2022-12-03T00:39:02.844Z,3.36
2022-12-03T00:44:04.999Z,3.54
2022-12-03T00:49:07.088Z,3.57
2022-12-03T00:54:10.314Z,3.49
2022-12-03T00:59:12.493Z,3.49
2022-12-03T01:04:15.243Z,3.51
2022-12-03T01:09:17.328Z,3.44
2022-12-03T01:14:20.589Z,3.15
2022-12-03T01:19:22.624Z,3.32
2022-12-03T01:24:24.631Z,3.32
2022-12-03T01:29:27.214Z,3.06
2022-12-03T01:34:52.942Z,3.28
2022-12-03T01:39:59.710Z,3.30
2022-12-03T01:45:02.859Z,3.16
2022-12-03T01:50:43.543Z,3.15
2022-12-03T01:55:48.880Z,3.07
2022-12-03T02:00:51.257Z,3.07
2022-12-03T02:05:53.564Z,3.01
2022-12-03T02:10:57.909Z,2.99
2022-12-03T02:16:00.199Z,2.94
2022-12-03T02:21:11.401Z,2.85
2022-12-03T02:26:13.579Z,3.01
2022-12-03T02:31:15.718Z,2.99
2022-12-03T02:36:17.778Z,2.78
2022-12-03T02:41:44.408Z,2.80
2022-12-03T02:46:46.826Z,2.89
2022-12-03T02:51:49.615Z,2.68
2022-12-03T02:56:51.864Z,2.71
2022-12-03T03:01:56.059Z,2.94
2022-12-03T03:06:58.297Z,2.63
2022-12-03T03:12:00.866Z,2.77
2022-12-03T03:17:04.190Z,2.71
2022-12-03T03:22:06.652Z,2.66
2022-12-03T03:27:09.022Z,2.45
2022-12-03T03:32:11.940Z,2.63
2022-12-03T03:37:14.038Z,2.49
2022-12-03T03:42:16.391Z,2.50
2022-12-03T03:47:18.807Z,2.22
2022-12-03T03:52:21.210Z,2.29
2022-12-03T03:57:26.079Z,2.33
2022-12-03T04:02:29.334Z,2.37
2022-12-03T04:07:31.508Z,2.29
2022-12-03T04:12:52.585Z,2.30
2022-12-03T04:18:27.378Z,2.34
2022-12-03T04:23:31.238Z,2.28
2022-12-03T04:28:51.692Z,2.22
2022-12-03T04:34:12.585Z,2.29
2022-12-03T04:39:14.703Z,2.22
2022-12-03T04:44:35.420Z,2.12
2022-12-03T04:49:48.526Z,2.01
2022-12-03T04:54:51.001Z,2.06
2022-12-03T04:59:53.166Z,1.89
2022-12-03T05:04:55.378Z,2.03
2022-12-03T05:09:57.684Z,1.89
2022-12-03T05:14:59.751Z,1.71
2022-12-03T05:20:20.420Z,1.61
2022-12-03T05:25:22.611Z,1.65
2022-12-03T05:30:24.631Z,1.34
2022-12-03T05:35:26.977Z,1.52
2022-12-03T05:40:29.185Z,1.52
2022-12-03T05:45:35.019Z,1.52
2022-12-03T05:50:38.975Z,1.61
2022-12-03T05:55:50.006Z,1.59
2022-12-03T06:00:52.437Z,1.42
2022-12-03T06:05:55.040Z,1.62
2022-12-03T06:10:57.346Z,1.76
2022-12-03T06:15:59.540Z,1.75
2022-12-03T06:21:01.964Z,1.87
2022-12-03T06:26:03.968Z,1.83
2022-12-03T06:31:06.574Z,1.81
2022-12-03T06:36:09.167Z,1.75
2022-12-03T06:41:11.743Z,1.62
2022-12-03T06:46:14.322Z,1.73
2022-12-03T06:51:16.453Z,1.67
2022-12-03T06:56:22.125Z,1.41
2022-12-03T07:01:25.393Z,1.57
2022-12-03T07:06:42.835Z,1.53
2022-12-03T07:11:44.817Z,1.44
2022-12-03T07:16:49.864Z,1.46
2022-12-03T07:21:52.072Z,1.45
2022-12-03T07:26:54.461Z,1.57
2022-12-03T07:31:56.589Z,1.50
2022-12-03T07:36:59.633Z,1.42
2022-12-03T07:42:03.154Z,1.49
2022-12-03T07:47:05.361Z,1.53
2022-12-03T07:52:07.766Z,1.58
2022-12-03T07:57:10.049Z,1.71
2022-12-03T08:02:13.900Z,1.82
2022-12-03T08:07:21.619Z,1.93
2022-12-03T08:12:40.307Z,1.89
2022-12-03T08:17:43.362Z,1.73
2022-12-03T08:22:47.235Z,2.11
2022-12-03T08:27:49.729Z,2.16
2022-12-03T08:32:52.449Z,2.30
2022-12-03T08:38:14.358Z,2.36
2022-12-03T08:43:28.187Z,2.43
2022-12-03T08:48:42.811Z,2.38
2022-12-03T08:53:56.815Z,2.40
2022-12-03T08:59:25.546Z,2.39
2022-12-03T09:04:39.354Z,2.37
2022-12-03T09:09:41.741Z,2.56
2022-12-03T09:14:44.053Z,2.76
2022-12-03T09:19:46.586Z,4.04
2022-12-03T09:24:48.597Z,5.52
2022-12-03T09:29:51.028Z,6.64
2022-12-03T09:34:54.542Z,6.96
2022-12-03T09:39:56.758Z,7.13
2022-12-03T09:44:59.530Z,6.82
2022-12-03T09:50:02.350Z,6.44
2022-12-03T09:55:12.583Z,6.44
2022-12-03T10:00:19.390Z,6.32
2022-12-03T10:05:22.562Z,6.14
2022-12-03T10:10:25.736Z,6.16
2022-12-03T10:15:28.414Z,5.67
2022-12-03T10:20:30.721Z,5.54
2022-12-03T10:25:32.754Z,5.96
2022-12-03T10:30:39.123Z,6.16
2022-12-03T10:35:44.171Z,6.03
2022-12-03T10:40:46.762Z,6.30
2022-12-03T10:45:50.172Z,6.32
2022-12-03T10:50:55.309Z,6.44
2022-12-03T10:55:59.912Z,6.61
2022-12-03T11:01:03.939Z,6.46
2022-12-03T11:06:06.098Z,6.68
2022-12-03T11:11:18.670Z,6.63
2022-12-03T11:16:39.629Z,6.98
2022-12-03T11:22:13.781Z,7.27
2022-12-03T11:27:19.234Z,7.34
2022-12-03T11:32:39.563Z,7.68
2022-12-03T11:37:41.621Z,7.88
2022-12-03T11:42:44.384Z,8.10
2022-12-03T11:48:08.600Z,8.23
2022-12-03T11:53:26.191Z,8.48
2022-12-03T11:58:30.567Z,8.48
2022-12-03T12:03:34.842Z,8.45
2022-12-03T12:08:52.736Z,8.41
2022-12-03T12:13:58.727Z,8.61
2022-12-03T12:19:30.803Z,8.77
2022-12-03T12:24:55.370Z,8.93
2022-12-03T12:29:59.391Z,9.06
2022-12-03T12:35:16.226Z,9.25
2022-12-03T12:40:19.139Z,9.39
2022-12-03T12:45:26.589Z,9.47
2022-12-03T12:50:31.161Z,9.42
2022-12-03T12:55:33.153Z,9.54
2022-12-03T13:00:35.887Z,9.62
2022-12-03T13:05:43.151Z,9.60
2022-12-03T13:10:45.561Z,9.42
2022-12-03T13:16:05.894Z,9.74
2022-12-03T13:21:20.524Z,9.53
2022-12-03T13:26:38.750Z,9.85
2022-12-03T13:31:44.329Z,9.97
2022-12-03T13:36:50.716Z,9.98
2022-12-03T13:42:17.994Z,10.10
2022-12-03T13:47:22.188Z,10.00
2022-12-03T13:52:26.737Z,9.94
2022-12-03T13:57:28.688Z,9.84
2022-12-03T14:02:30.979Z,9.59
2022-12-03T14:07:33.307Z,9.45
2022-12-03T14:12:35.514Z,9.42
2022-12-03T14:17:37.894Z,9.32
2022-12-03T14:22:40.138Z,9.36
2022-12-03T14:27:42.460Z,9.31
2022-12-03T14:32:44.437Z,9.29
2022-12-03T14:37:46.459Z,9.23
2022-12-03T14:42:48.648Z,9.30
2022-12-03T14:47:54.347Z,9.31
2022-12-03T14:53:01.020Z,9.39
2022-12-03T14:58:03.796Z,9.17
2022-12-03T15:03:05.776Z,9.30
2022-12-03T15:08:09.601Z,9.26
2022-12-03T15:13:11.862Z,9.26
2022-12-03T15:18:13.820Z,9.20
2022-12-03T15:23:16.269Z,9.17
2022-12-03T15:28:18.503Z,9.10
2022-12-03T15:33:20.601Z,9.17
2022-12-03T15:38:22.979Z,9.12
2022-12-03T15:43:25.431Z,9.02
2022-12-03T15:48:27.487Z,9.04
2022-12-03T15:53:29.842Z,9.04
2022-12-03T15:58:32.234Z,9.02
2022-12-03T16:03:35.243Z,8.95
2022-12-03T16:08:37.372Z,8.96
2022-12-03T16:13:39.923Z,8.81
2022-12-03T16:18:41.835Z,8.77
2022-12-03T16:23:43.987Z,8.78
2022-12-03T16:28:46.301Z,8.75
2022-12-03T16:33:48.587Z,8.70
2022-12-03T16:38:51.824Z,8.51
2022-12-03T16:43:54.693Z,8.35
2022-12-03T16:48:58.071Z,8.38
2022-12-03T16:54:00.389Z,8.30
2022-12-03T16:59:03.125Z,8.29
2022-12-03T17:04:05.200Z,8.19
2022-12-03T17:09:07.405Z,8.21
2022-12-03T17:14:09.691Z,8.16
2022-12-03T17:19:12.025Z,8.10
2022-12-03T17:24:14.268Z,8.06
2022-12-03T17:29:16.717Z,8.08
2022-12-03T17:34:18.906Z,7.98
2022-12-03T17:39:23.175Z,7.68
2022-12-03T17:44:25.629Z,7.60
2022-12-03T17:49:31.721Z,7.39
2022-12-03T17:54:49.368Z,7.17
2022-12-03T17:59:59.804Z,7.40
2022-12-03T18:05:02.480Z,7.27
2022-12-03T18:10:08.992Z,7.17
2022-12-03T18:15:11.736Z,7.23
2022-12-03T18:20:16.990Z,7.23
2022-12-03T18:25:19.482Z,7.16
2022-12-03T18:30:22.305Z,7.20
2022-12-03T18:35:29.389Z,7.13
2022-12-03T18:40:31.615Z,7.12
2022-12-03T18:45:34.193Z,7.08
2022-12-03T18:50:36.393Z,7.07
2022-12-03T18:55:39.786Z,6.94
2022-12-03T19:00:42.970Z,6.94
2022-12-03T19:05:45.257Z,6.94
2022-12-03T19:10:56.159Z,6.92
2022-12-03T19:16:03.365Z,6.82
2022-12-03T19:21:11.145Z,6.88
2022-12-03T19:26:15.002Z,6.74
2022-12-03T19:31:19.707Z,6.73
2022-12-03T19:36:26.300Z,6.73
2022-12-03T19:41:30.932Z,6.23
2022-12-03T19:46:33.522Z,6.59
2022-12-03T19:51:36.042Z,6.50
2022-12-03T19:56:40.183Z,6.53
2022-12-03T20:01:44.320Z,6.50
2022-12-03T20:06:47.935Z,6.52
2022-12-03T20:11:52.169Z,6.47
2022-12-03T20:16:55.351Z,6.47
2022-12-03T20:22:02.791Z,6.40
2022-12-03T20:27:07.809Z,6.36
2022-12-03T20:32:22.645Z,6.33
2022-12-03T20:37:26.996Z,6.27
2022-12-03T20:42:30.247Z,6.28
2022-12-03T20:47:34.598Z,6.25
2022-12-03T20:52:38.385Z,6.23
2022-12-03T20:57:43.990Z,6.27
2022-12-03T21:02:46.991Z,6.23
2022-12-03T21:07:51.205Z,6.19
2022-12-03T21:12:53.189Z,6.24
2022-12-03T21:17:55.807Z,6.16
2022-12-03T21:22:59.557Z,6.18
2022-12-03T21:28:10.487Z,6.18
2022-12-03T21:33:12.529Z,5.96
2022-12-03T21:38:15.055Z,6.13
2022-12-03T21:43:18.141Z,6.10
2022-12-03T21:48:20.976Z,6.12
2022-12-03T21:53:23.946Z,6.00
2022-12-03T21:58:26.346Z,6.11
2022-12-03T22:03:28.918Z,6.09
2022-12-03T22:08:32.082Z,6.10
2022-12-03T22:13:34.602Z,6.06
2022-12-03T22:18:38.563Z,6.09
2022-12-03T22:23:40.746Z,5.98
2022-12-03T22:28:48.406Z,6.07
2022-12-03T22:33:51.121Z,6.00
2022-12-03T22:38:54.349Z,6.00
2022-12-03T22:43:56.573Z,6.00
2022-12-03T22:49:03.476Z,5.99
2022-12-03T22:54:10.764Z,6.04
2022-12-03T22:59:13.399Z,6.05
2022-12-03T23:04:16.008Z,5.97
2022-12-03T23:09:19.135Z,5.91
2022-12-03T23:14:21.206Z,5.75
2022-12-03T23:19:23.349Z,5.48
2022-12-03T23:24:26.731Z,5.46
2022-12-03T23:29:28.766Z,5.63
2022-12-03T23:34:31.214Z,5.59
2022-12-03T23:39:33.160Z,5.53
2022-12-03T23:44:35.018Z,5.43
2022-12-03T23:49:37.939Z,5.36
2022-12-03T23:54:40.611Z,5.30
2022-12-03T23:59:42.942Z,5.26
